Britts, South Carolina
Current Conditions -  °F | °C
As of 10:56 AM on Tuesday 21 Oct 2014 (Local Time) from KGRD Reporting Station
Clear Clear  
Wind Chill: 65°   Ceiling: Unl
Heat Index: 65°   Visibility: 10mi
Dew Point: 52°   Wind: 5mph
Humidity: 63%   Direction: NA
Pressure: 30"   Gusts: NA
Location:  33.9231°N, 82.2423°W
Report Text: KGRD 211456Z AUTO VRB04KT 10SM CLR 18/11 A3000 RMK AO2 SLP155 T01830111 50005
Loading
Personal Weather Stations






























Interactive Weather Map
Tropical Storm Tracking
New forecast layout! Learn more

10-Day Weather Forecast

Advertisements
Track Severe Weather on mobile